Airport View

Enter AWOS ICAO identifier for current METAR.

ex. KFNL

KINF 191850Z AUTO 22011G18KT 190V250 7SM VCTS SCT019 BKN032 BKN044 30/27 A2997 RMK AO2 LTG DSNT W THRU E

19 Jun 2019 18:47

Frequency: 119.975

Phone: 352-341-0264

Other Area AWOS: KCGC - KVVG - KBKV - KOCF

TAF KLEE 191725Z 1918/2018 24010KT P6SM VCTS SCT035CB BKN060 TEMPO 1918/1922 VRB15G30KT 3SM TSRA BKN030CB FM192300 23007KT P6SM FEW035 SCT080 BKN250